Time;durP1;ratioP1;P1;durP2;ratioP2;P2;SDS_P1;SDS_P2;PMS_P1;PMS_P2;Temp;Humidity;BMP_temperature;BMP_pressure;BME280_temperature;BME280_humidity;BME280_pressure;Samples;Min_cycle;Max_cycle;Signal;HPM_P1;HPM_P2
2022/07/21 00:00:28;;;;;;;0.00;0.00;;;21.60;99.90;;;;;;4933197;29;20454;-89
2022/07/21 00:02:57;;;;;;;0.00;0.00;;;21.60;99.90;;;;;;4932355;29;20504;-89
2022/07/21 00:05:26;;;;;;;0.00;0.00;;;21.60;99.90;;;;;;4932163;29;20899;-88
2022/07/21 00:07:55;;;;;;;0.00;0.00;;;21.50;99.90;;;;;;4931630;29;20467;-89
2022/07/21 00:10:25;;;;;;;0.00;0.00;;;21.50;99.90;;;;;;4931652;29;20568;-90
2022/07/21 00:12:54;;;;;;;0.00;0.00;;;21.50;99.90;;;;;;4932364;29;20572;-89
2022/07/21 00:15:24;;;;;;;0.00;0.00;;;21.50;99.90;;;;;;4931989;29;20445;-88
2022/07/21 00:17:52;;;;;;;0.00;0.00;;;21.50;99.90;;;;;;4932098;29;20601;-90
2022/07/21 00:20:21;;;;;;;0.00;0.00;;;21.50;99.90;;;;;;4931635;29;21064;-90
2022/07/21 00:22:49;;;;;;;0.00;0.00;;;21.40;99.90;;;;;;4931631;29;20549;-90
2022/07/21 00:25:18;;;;;;;0.00;0.00;;;21.40;99.90;;;;;;4931893;29;21097;-90
2022/07/21 00:27:46;;;;;;;0.00;0.00;;;21.40;99.90;;;;;;4931866;29;20492;-88
2022/07/21 00:30:15;;;;;;;0.00;0.00;;;21.30;99.90;;;;;;4931604;29;20541;-88
2022/07/21 00:32:44;;;;;;;0.00;0.00;;;21.20;99.90;;;;;;4931619;29;20493;-91
2022/07/21 00:35:13;;;;;;;0.00;0.00;;;21.20;99.90;;;;;;4931664;29;20537;-89
2022/07/21 00:37:42;;;;;;;0.00;0.00;;;21.20;99.90;;;;;;4930218;29;20565;-90
2022/07/21 00:40:11;;;;;;;0.00;0.00;;;21.10;99.90;;;;;;4931232;29;20544;-91
2022/07/21 00:42:42;;;;;;;0.00;0.00;;;21.10;99.90;;;;;;4931562;29;20493;-89
2022/07/21 00:45:11;;;;;;;0.00;0.00;;;21.00;99.90;;;;;;4932054;29;20464;-89
2022/07/21 00:47:40;;;;;;;0.00;0.00;;;20.90;99.90;;;;;;4931479;29;20442;-91
2022/07/21 00:50:12;;;;;;;0.00;0.00;;;20.80;99.90;;;;;;4932454;29;20453;-90
2022/07/21 00:52:41;;;;;;;0.00;0.00;;;20.80;99.90;;;;;;4948834;28;20493;-90
2022/07/21 00:55:11;;;;;;;0.00;0.00;;;20.70;99.90;;;;;;4932326;29;20512;-89
2022/07/21 00:57:41;;;;;;;0.00;0.00;;;20.60;99.90;;;;;;4932543;29;20544;-89
2022/07/21 01:00:12;;;;;;;0.00;0.00;;;20.60;99.90;;;;;;4931864;29;20450;-89
2022/07/21 01:02:40;;;;;;;0.00;0.00;;;20.60;99.90;;;;;;4931767;29;20454;-90
2022/07/21 01:05:12;;;;;;;0.00;0.00;;;20.50;99.90;;;;;;4936508;29;21020;-90
2022/07/21 01:07:40;;;;;;;0.00;0.00;;;20.50;99.90;;;;;;4936753;29;20457;-90
2022/07/21 01:10:10;;;;;;;0.00;0.00;;;20.50;99.90;;;;;;4936012;29;20526;-89
2022/07/21 01:12:40;;;;;;;0.00;0.00;;;20.40;99.90;;;;;;4936171;29;20797;-90
2022/07/21 01:15:10;;;;;;;0.00;0.00;;;20.40;99.90;;;;;;4936040;29;20549;-90
2022/07/21 01:17:38;;;;;;;0.00;0.00;;;20.40;99.90;;;;;;4934877;29;20529;-88
2022/07/21 01:20:09;;;;;;;0.00;0.00;;;20.40;99.90;;;;;;4935701;29;20457;-89
2022/07/21 01:22:40;;;;;;;0.00;0.00;;;20.30;99.90;;;;;;4934979;29;20480;-87
2022/07/21 01:25:09;;;;;;;0.00;0.00;;;20.20;99.90;;;;;;4934460;29;20509;-89
2022/07/21 01:27:37;;;;;;;0.00;0.00;;;20.20;99.90;;;;;;4933899;29;20931;-89
2022/07/21 01:30:07;;;;;;;0.00;0.00;;;20.20;99.90;;;;;;4933085;29;20623;-88
2022/07/21 01:32:38;;;;;;;0.00;0.00;;;20.10;99.90;;;;;;4933637;29;20573;-87
2022/07/21 01:35:08;;;;;;;0.00;0.00;;;20.20;99.90;;;;;;4934041;29;20442;-88
2022/07/21 01:37:40;;;;;;;0.00;0.00;;;20.20;99.90;;;;;;4933822;29;20520;-88
2022/07/21 01:42:55;;;;;;;0.00;0.00;;;20.10;99.90;;;;;;4937398;29;20480;-88
2022/07/21 01:45:24;;;;;;;0.00;0.00;;;20.10;99.90;;;;;;4936875;29;20537;-89
2022/07/21 01:47:52;;;;;;;0.00;0.00;;;20.10;99.90;;;;;;4935401;29;20457;-90
2022/07/21 01:50:22;;;;;;;0.00;0.00;;;19.90;99.90;;;;;;4947312;29;20517;-91
2022/07/21 01:52:52;;;;;;;0.00;0.00;;;19.80;99.90;;;;;;4943279;28;20910;-91
2022/07/21 01:55:20;;;;;;;0.00;0.00;;;19.90;99.90;;;;;;4935307;29;20492;-90
2022/07/21 01:57:49;;;;;;;0.00;0.00;;;20.00;99.90;;;;;;4934840;29;20477;-89
2022/07/21 02:00:17;;;;;;;0.00;0.00;;;20.10;99.90;;;;;;4935122;29;20460;-90
2022/07/21 02:02:45;;;;;;;0.00;0.00;;;20.10;99.90;;;;;;4935363;29;20544;-91
2022/07/21 02:05:14;;;;;;;0.00;0.00;;;20.10;99.90;;;;;;4934667;29;20987;-91
2022/07/21 02:07:43;;;;;;;0.00;0.00;;;20.10;99.90;;;;;;4934794;29;20442;-90
2022/07/21 02:10:13;;;;;;;0.00;0.00;;;20.20;99.90;;;;;;4934503;29;20545;-91
2022/07/21 02:12:40;;;;;;;0.00;0.00;;;20.20;99.90;;;;;;4934388;29;20485;-90
2022/07/21 02:15:10;;;;;;;0.00;0.00;;;20.20;99.90;;;;;;4934347;29;20465;-90
2022/07/21 02:24:08;;;;;;;0.00;0.00;;;20.20;99.90;;;;;;4912312;29;20461;-90
2022/07/21 02:26:37;;;;;;;0.00;0.00;;;20.10;99.90;;;;;;4908829;29;20743;-89
2022/07/21 02:29:05;;;;;;;0.00;0.00;;;20.10;99.90;;;;;;4908956;29;21045;-90
2022/07/21 02:31:33;;;;;;;0.00;0.00;;;20.00;99.90;;;;;;4909114;29;20443;-89
2022/07/21 02:34:01;;;;;;;0.00;0.00;;;20.10;99.90;;;;;;4908551;29;21149;-89
2022/07/21 02:36:29;;;;;;;0.00;0.00;;;20.00;99.90;;;;;;4908728;29;20517;-89
2022/07/21 02:38:57;;;;;;;0.00;0.00;;;20.00;99.90;;;;;;4909091;29;20470;-88
2022/07/21 02:41:24;;;;;;;0.00;0.00;;;20.00;99.90;;;;;;4909072;29;20443;-89
2022/07/21 02:43:54;;;;;;;0.00;0.00;;;20.00;99.90;;;;;;4909399;29;20459;-89
2022/07/21 02:46:22;;;;;;;0.00;0.00;;;20.00;99.90;;;;;;4909544;29;20458;-89
2022/07/21 02:48:50;;;;;;;0.00;0.00;;;20.00;99.90;;;;;;4908769;29;20465;-89
2022/07/21 02:51:18;;;;;;;0.00;0.00;;;19.90;99.90;;;;;;4909911;29;20977;-89
2022/07/21 02:53:46;;;;;;;0.00;0.00;;;19.90;99.90;;;;;;4908424;29;20581;-89
2022/07/21 02:56:16;;;;;;;0.00;0.00;;;19.80;99.90;;;;;;4909290;29;20746;-89
2022/07/21 02:58:44;;;;;;;0.00;0.00;;;19.90;99.90;;;;;;4908752;29;20880;-89
2022/07/21 03:01:14;;;;;;;0.00;0.00;;;19.80;99.90;;;;;;4908993;29;20889;-89
2022/07/21 03:03:42;;;;;;;0.00;0.00;;;19.80;99.90;;;;;;4915749;29;20478;-88
2022/07/21 03:06:10;;;;;;;0.00;0.00;;;19.80;99.90;;;;;;4931936;29;20441;-90
2022/07/21 03:08:38;;;;;;;0.00;0.00;;;19.80;99.90;;;;;;4931724;29;20472;-90
2022/07/21 03:11:06;;;;;;;0.00;0.00;;;19.80;99.90;;;;;;4931662;29;20470;-91
2022/07/21 03:13:35;;;;;;;0.00;0.00;;;19.80;99.90;;;;;;4912151;29;21008;-91
2022/07/21 03:16:02;;;;;;;0.00;0.00;;;19.80;99.90;;;;;;4911538;29;20461;-90
2022/07/21 03:18:32;;;;;;;0.00;0.00;;;19.80;99.90;;;;;;4908792;29;20469;-89
2022/07/21 03:21:00;;;;;;;0.00;0.00;;;19.70;99.90;;;;;;4908006;29;20777;-90
2022/07/21 03:23:28;;;;;;;0.00;0.00;;;19.70;99.90;;;;;;4908987;29;20483;-90
2022/07/21 03:25:56;;;;;;;0.00;0.00;;;19.60;99.90;;;;;;4909515;29;20489;-89
2022/07/21 03:28:24;;;;;;;0.00;0.00;;;19.60;99.90;;;;;;4908581;29;20454;-90
2022/07/21 03:30:52;;;;;;;0.00;0.00;;;19.70;99.90;;;;;;4908457;29;20518;-90
2022/07/21 03:33:20;;;;;;;0.00;0.00;;;19.70;99.90;;;;;;4908767;29;20721;-89
2022/07/21 03:35:49;;;;;;;0.00;0.00;;;19.70;99.90;;;;;;4908030;29;20495;-89
2022/07/21 03:38:17;;;;;;;0.00;0.00;;;19.60;99.90;;;;;;4909839;29;20458;-90
2022/07/21 03:40:45;;;;;;;0.00;0.00;;;19.70;99.90;;;;;;4908681;29;20553;-90
2022/07/21 03:43:13;;;;;;;0.00;0.00;;;19.70;99.90;;;;;;4909564;29;21027;-90
2022/07/21 03:45:42;;;;;;;0.00;0.00;;;19.70;99.90;;;;;;4910013;29;20469;-91
2022/07/21 03:48:10;;;;;;;0.00;0.00;;;19.80;99.90;;;;;;4912423;29;20470;-89
2022/07/21 03:50:42;;;;;;;0.00;0.00;;;19.80;99.90;;;;;;4917617;29;21005;-90
2022/07/21 03:53:11;;;;;;;0.00;0.00;;;19.90;99.90;;;;;;4923352;29;20509;-90
2022/07/21 03:55:41;;;;;;;0.00;0.00;;;19.90;99.90;;;;;;4913722;29;20458;-90
2022/07/21 03:58:09;;;;;;;0.00;0.00;;;19.90;99.90;;;;;;4913996;29;20486;-87
2022/07/21 04:00:39;;;;;;;0.00;0.00;;;20.00;99.90;;;;;;4914021;29;20451;-90
2022/07/21 04:03:08;;;;;;;0.00;0.00;;;20.10;99.90;;;;;;4924897;29;20466;-90
2022/07/21 04:05:37;;;;;;;0.00;0.00;;;20.20;99.90;;;;;;4926962;29;20474;-89
2022/07/21 04:08:06;;;;;;;0.00;0.00;;;20.20;99.90;;;;;;4915576;29;20505;-90
2022/07/21 04:10:37;;;;;;;0.00;0.00;;;20.30;99.90;;;;;;4915429;29;20573;-90
2022/07/21 04:13:07;;;;;;;0.00;0.00;;;20.40;99.90;;;;;;4914345;29;20550;-90
2022/07/21 04:15:36;;;;;;;0.00;0.00;;;20.40;99.90;;;;;;4913513;29;20566;-90
2022/07/21 04:18:05;;;;;;;0.00;0.00;;;20.40;99.90;;;;;;4913547;29;20635;-90
2022/07/21 04:20:33;;;;;;;0.00;0.00;;;20.40;99.90;;;;;;4912989;29;20680;-90
2022/07/21 04:23:02;;;;;;;0.00;0.00;;;20.50;99.90;;;;;;4913671;29;20478;-90
2022/07/21 04:25:30;;;;;;;0.00;0.00;;;20.60;99.90;;;;;;4913945;29;20514;-91
2022/07/21 04:27:59;;;;;;;0.00;0.00;;;20.60;99.90;;;;;;4913669;29;21170;-89
2022/07/21 04:30:28;;;;;;;0.00;0.00;;;20.60;99.90;;;;;;4913852;29;20464;-90
2022/07/21 04:32:56;;;;;;;0.00;0.00;;;20.70;99.90;;;;;;4913730;29;20474;-90
2022/07/21 04:35:24;;;;;;;0.00;0.00;;;20.70;99.90;;;;;;4913692;29;21170;-90
2022/07/21 04:37:52;;;;;;;0.00;0.00;;;20.80;99.90;;;;;;4913633;29;20458;-91
2022/07/21 04:40:20;;;;;;;0.00;0.00;;;20.80;99.90;;;;;;4915785;29;20549;-91
2022/07/21 04:42:48;;;;;;;0.00;0.00;;;20.90;99.90;;;;;;4917754;29;20474;-91
2022/07/21 04:45:18;;;;;;;0.00;0.00;;;20.90;99.90;;;;;;4918515;29;20474;-91
2022/07/21 04:47:47;;;;;;;0.00;0.00;;;21.00;99.90;;;;;;4917784;29;21059;-90
2022/07/21 04:50:16;;;;;;;0.00;0.00;;;21.10;99.90;;;;;;4918963;29;20545;-89
2022/07/21 04:52:45;;;;;;;0.00;0.00;;;21.20;99.90;;;;;;4917459;29;20569;-89
2022/07/21 04:55:14;;;;;;;0.00;0.00;;;21.20;99.90;;;;;;4917135;29;20506;-90
2022/07/21 04:57:43;;;;;;;0.00;0.00;;;21.30;99.90;;;;;;4918179;29;20518;-90
2022/07/21 05:00:13;;;;;;;0.00;0.00;;;21.30;99.90;;;;;;4919390;29;20462;-90
2022/07/21 05:02:43;;;;;;;0.00;0.00;;;21.30;99.90;;;;;;4938638;29;20474;-90
2022/07/21 05:05:12;;;;;;;0.00;0.00;;;21.30;99.90;;;;;;4927412;29;20431;-90
2022/07/21 05:07:42;;;;;;;0.00;0.00;;;21.30;99.90;;;;;;4919509;29;20493;-90
2022/07/21 05:10:12;;;;;;;0.00;0.00;;;21.40;99.90;;;;;;4918319;29;20476;-91
2022/07/21 05:12:40;;;;;;;0.00;0.00;;;21.40;99.90;;;;;;4917154;29;20549;-91
2022/07/21 05:15:11;;;;;;;0.00;0.00;;;21.50;99.90;;;;;;4917323;29;20478;-91
2022/07/21 05:17:39;;;;;;;0.00;0.00;;;21.50;99.90;;;;;;4916683;29;21044;-91
2022/07/21 05:20:09;;;;;;;0.00;0.00;;;21.40;99.90;;;;;;4916768;29;20902;-91
2022/07/21 05:22:38;;;;;;;0.00;0.00;;;21.40;99.90;;;;;;4916910;29;20566;-91
2022/07/21 05:25:07;;;;;;;0.00;0.00;;;21.30;99.90;;;;;;4916502;29;20455;-90
2022/07/21 05:27:36;;;;;;;0.00;0.00;;;21.30;99.90;;;;;;4915508;29;20941;-91
2022/07/21 05:30:04;;;;;;;0.00;0.00;;;21.30;99.90;;;;;;4916800;29;20470;-90
2022/07/21 05:32:33;;;;;;;0.00;0.00;;;21.30;99.90;;;;;;4916686;29;20553;-91
2022/07/21 05:35:01;;;;;;;0.00;0.00;;;21.30;99.90;;;;;;4916239;29;20879;-90
2022/07/21 05:37:30;;;;;;;0.00;0.00;;;21.30;99.90;;;;;;4916798;29;20493;-90
2022/07/21 05:39:58;;;;;;;0.00;0.00;;;21.30;99.90;;;;;;4918151;29;20451;-90
2022/07/21 05:42:27;;;;;;;0.00;0.00;;;21.40;99.90;;;;;;4914735;29;21030;-90
2022/07/21 05:44:56;;;;;;;0.00;0.00;;;21.40;99.90;;;;;;4918210;29;20538;-91
2022/07/21 05:47:24;;;;;;;0.00;0.00;;;21.30;99.90;;;;;;4918792;29;20470;-93
2022/07/21 05:49:55;;;;;;;0.00;0.00;;;21.10;99.90;;;;;;4917455;29;20454;-92
2022/07/21 05:52:23;;;;;;;0.00;0.00;;;21.00;99.90;;;;;;4920663;29;20505;-91
2022/07/21 05:54:52;;;;;;;0.00;0.00;;;20.80;99.90;;;;;;4922164;29;20597;-93
2022/07/21 05:57:20;;;;;;;0.00;0.00;;;20.80;99.90;;;;;;4918467;29;20534;-92
2022/07/21 05:59:49;;;;;;;0.00;0.00;;;20.80;99.90;;;;;;4929351;29;20480;-92
2022/07/21 06:02:17;;;;;;;0.00;0.00;;;20.80;99.90;;;;;;4930940;29;20577;-91
2022/07/21 06:04:45;;;;;;;0.00;0.00;;;20.80;99.90;;;;;;4932227;29;20517;-91
2022/07/21 06:07:13;;;;;;;0.00;0.00;;;20.90;99.90;;;;;;4921789;29;20549;-91
2022/07/21 06:09:41;;;;;;;0.00;0.00;;;20.90;99.90;;;;;;4918057;29;20782;-92
2022/07/21 06:12:11;;;;;;;0.00;0.00;;;21.00;99.90;;;;;;4920105;29;20570;-92
2022/07/21 06:14:39;;;;;;;0.00;0.00;;;21.00;99.90;;;;;;4922490;29;21060;-93
2022/07/21 06:17:07;;;;;;;0.00;0.00;;;21.00;99.90;;;;;;4921808;29;20529;-92
2022/07/21 06:19:35;;;;;;;0.00;0.00;;;21.10;99.90;;;;;;4920934;29;20475;-91
2022/07/21 06:22:03;;;;;;;0.00;0.00;;;21.20;99.90;;;;;;4917760;29;20498;-91
2022/07/21 06:24:33;;;;;;;0.00;0.00;;;21.30;99.90;;;;;;4916761;29;20553;-91
2022/07/21 06:27:01;;;;;;;0.00;0.00;;;21.30;99.90;;;;;;4917349;29;20490;-90
2022/07/21 06:29:34;;;;;;;0.00;0.00;;;21.30;99.90;;;;;;4916484;29;20613;-90
2022/07/21 06:32:02;;;;;;;0.00;0.00;;;21.40;99.90;;;;;;4921501;29;20538;-90
2022/07/21 06:34:30;;;;;;;0.00;0.00;;;21.60;99.90;;;;;;4922236;29;20459;-90
2022/07/21 06:36:58;;;;;;;0.00;0.00;;;21.70;99.90;;;;;;4917838;29;21132;-91
2022/07/21 06:39:27;;;;;;;0.00;0.00;;;21.70;99.90;;;;;;4917538;29;20622;-91
2022/07/21 06:41:55;;;;;;;0.00;0.00;;;21.60;99.90;;;;;;4916742;29;20482;-90
2022/07/21 06:44:24;;;;;;;0.00;0.00;;;21.50;99.90;;;;;;4917960;29;20475;-89
2022/07/21 06:46:54;;;;;;;0.00;0.00;;;21.50;99.90;;;;;;4916947;29;20431;-90
2022/07/21 06:49:22;;;;;;;0.00;0.00;;;21.30;99.90;;;;;;4919366;29;20561;-90
2022/07/21 06:51:52;;;;;;;0.00;0.00;;;21.30;99.90;;;;;;4920710;29;20462;-94
2022/07/21 06:54:21;;;;;;;0.00;0.00;;;21.20;99.90;;;;;;4927489;29;20427;-90
2022/07/21 06:56:49;;;;;;;0.00;0.00;;;21.20;99.90;;;;;;4921857;29;20569;-90
2022/07/21 06:59:17;;;;;;;0.00;0.00;;;21.10;99.90;;;;;;4933072;29;20561;-89
2022/07/21 07:01:45;;;;;;;0.00;0.00;;;21.10;99.90;;;;;;4921487;29;20478;-91
2022/07/21 07:04:14;;;;;;;0.00;0.00;;;21.10;99.90;;;;;;4917825;29;20501;-90
2022/07/21 07:06:44;;;;;;;0.00;0.00;;;21.10;99.90;;;;;;4923436;29;20419;-89
2022/07/21 07:09:12;;;;;;;0.00;0.00;;;21.00;99.90;;;;;;4918034;29;20978;-89
2022/07/21 07:11:39;;;;;;;0.00;0.00;;;20.90;99.90;;;;;;4917300;29;20458;-90
2022/07/21 07:14:07;;;;;;;0.00;0.00;;;20.80;99.90;;;;;;4918200;29;20549;-90
2022/07/21 07:16:45;;;;;;;0.00;0.00;;;20.80;99.90;;;;;;4920848;29;20911;-91
2022/07/21 07:19:14;;;;;;;0.00;0.00;;;20.80;99.90;;;;;;4918745;29;20927;-90
2022/07/21 07:21:42;;;;;;;0.00;0.00;;;20.70;99.90;;;;;;4919046;29;20445;-90
2022/07/21 07:24:10;;;;;;;0.00;0.00;;;20.70;99.90;;;;;;4916753;29;21298;-91
2022/07/21 07:26:39;;;;;;;0.00;0.00;;;20.70;99.90;;;;;;4919539;29;20550;-92
2022/07/21 07:29:06;;;;;;;0.00;0.00;;;20.70;99.90;;;;;;4918533;29;20458;-90
2022/07/21 07:31:35;;;;;;;0.00;0.00;;;20.70;99.90;;;;;;4917881;29;20553;-90
2022/07/21 07:34:03;;;;;;;0.00;0.00;;;20.70;99.90;;;;;;4917497;29;20477;-90
2022/07/21 07:36:34;;;;;;;0.00;0.00;;;20.80;99.90;;;;;;4918503;29;20518;-91
2022/07/21 07:39:11;;;;;;;0.00;0.00;;;20.80;99.90;;;;;;4918843;29;20458;-92
2022/07/21 07:41:41;;;;;;;0.00;0.00;;;20.70;99.90;;;;;;4918622;29;20462;-91
2022/07/21 07:44:10;;;;;;;0.00;0.00;;;20.70;99.90;;;;;;4917979;29;20985;-91
2022/07/21 07:46:38;;;;;;;0.00;0.00;;;20.70;99.90;;;;;;4918878;29;20561;-92
2022/07/21 07:49:06;;;;;;;0.00;0.00;;;20.70;99.90;;;;;;4915363;29;20453;-89
2022/07/21 07:51:46;;;;;;;0.00;0.00;;;20.80;99.90;;;;;;4916385;29;20588;-89
2022/07/21 07:54:14;;;;;;;0.00;0.00;;;20.90;99.90;;;;;;4915915;29;20458;-89
2022/07/21 07:56:43;;;;;;;0.00;0.00;;;20.90;99.90;;;;;;4924998;29;20713;-89
2022/07/21 07:59:11;;;;;;;0.00;0.00;;;21.00;99.90;;;;;;4915388;29;20447;-90
2022/07/21 08:01:38;;;;;;;0.00;0.00;;;21.10;99.90;;;;;;4901692;29;20518;-90
2022/07/21 08:04:07;;;;;;;0.00;0.00;;;21.20;99.90;;;;;;4896742;29;20479;-90
2022/07/21 08:06:35;;;;;;;0.00;0.00;;;21.20;99.90;;;;;;4909683;29;20697;-89
2022/07/21 08:09:06;;;;;;;0.00;0.00;;;21.30;99.90;;;;;;4905664;29;20876;-89
2022/07/21 08:11:34;;;;;;;0.00;0.00;;;21.40;99.90;;;;;;4910415;29;20455;-90
2022/07/21 08:14:02;;;;;;;0.00;0.00;;;21.50;99.90;;;;;;4912094;29;20562;-89
2022/07/21 08:16:30;;;;;;;0.00;0.00;;;21.70;99.90;;;;;;4899450;29;20510;-89
2022/07/21 08:18:58;;;;;;;0.00;0.00;;;21.80;99.90;;;;;;4905374;29;20620;-89
2022/07/21 08:21:30;;;;;;;0.00;0.00;;;22.00;99.90;;;;;;4910258;29;20773;-89
2022/07/21 08:24:20;;;;;;;0.00;0.00;;;22.20;99.90;;;;;;4912990;29;20742;-90
2022/07/21 08:26:48;;;;;;;0.00;0.00;;;22.40;99.90;;;;;;4915238;29;20880;-90
2022/07/21 08:29:16;;;;;;;0.00;0.00;;;22.60;99.90;;;;;;4916011;29;20736;-90
2022/07/21 08:31:44;;;;;;;0.00;0.00;;;22.70;99.90;;;;;;4914829;29;20524;-89
2022/07/21 08:34:13;;;;;;;0.00;0.00;;;22.80;99.90;;;;;;4920747;29;20527;-90
2022/07/21 08:36:43;;;;;;;0.00;0.00;;;22.90;99.90;;;;;;4924924;29;20499;-90
2022/07/21 08:39:19;;;;;;;0.00;0.00;;;23.10;99.90;;;;;;4919677;29;20448;-90
2022/07/21 08:41:52;;;;;;;0.00;0.00;;;23.30;99.90;;;;;;4918696;29;20461;-90
2022/07/21 08:44:31;;;;;;;0.00;0.00;;;23.60;99.90;;;;;;4917343;29;20492;-89
2022/07/21 08:47:04;;;;;;;0.00;0.00;;;23.80;99.90;;;;;;4937047;29;20456;-90
2022/07/21 08:49:42;;;;;;;0.00;0.00;;;23.90;99.90;;;;;;4931575;29;20479;-90
2022/07/21 08:52:13;;;;;;;0.00;0.00;;;23.90;99.90;;;;;;4933127;29;20476;-90
2022/07/21 08:54:44;;;;;;;0.00;0.00;;;23.80;99.90;;;;;;4940571;29;20491;-90
2022/07/21 08:57:33;;;;;;;0.00;0.00;;;23.80;99.90;;;;;;4950545;28;20485;-92
2022/07/21 09:00:20;;;;;;;0.00;0.00;;;23.80;99.90;;;;;;4937314;29;20793;-92
2022/07/21 09:03:14;;;;;;;0.00;0.00;;;23.80;99.90;;;;;;4944506;29;20551;-92
2022/07/21 09:06:02;;;;;;;0.00;0.00;;;23.70;99.90;;;;;;4946491;29;20681;-92
2022/07/21 09:08:47;;;;;;;0.00;0.00;;;23.60;99.90;;;;;;4950702;28;20496;-92
2022/07/21 09:15:26;;;;;;;;;;;;;;;;;;;;;
2022/07/21 09:21:11;;;;;;;0.00;0.00;;;23.40;99.90;;;;;;4961439;23;20909;-74
2022/07/21 09:23:38;;;;;;;0.00;0.00;;;23.50;99.90;;;;;;4938985;29;20511;-74
2022/07/21 09:26:06;;;;;;;0.00;0.00;;;23.50;99.90;;;;;;4930291;29;21084;-74
2022/07/21 09:28:34;;;;;;;0.00;0.00;;;23.60;99.90;;;;;;4923703;29;20568;-74
2022/07/21 09:31:05;;;;;;;0.00;0.00;;;23.90;99.90;;;;;;4934309;29;20547;-73
2022/07/21 09:33:36;;;;;;;0.00;0.00;;;24.10;99.90;;;;;;4943156;29;21169;-73
2022/07/21 09:36:08;;;;;;;0.00;0.00;;;24.40;99.90;;;;;;4943382;29;20460;-74
2022/07/21 09:38:37;;;;;;;0.00;0.00;;;24.60;99.90;;;;;;4942947;28;20456;-74
2022/07/21 09:41:08;;;;;;;0.00;0.00;;;24.80;99.90;;;;;;4923317;29;20579;-73
2022/07/21 09:43:44;;;;;;;0.00;0.00;;;24.90;99.90;;;;;;4923852;29;21122;-75
2022/07/21 09:46:16;;;;;;;0.00;0.00;;;24.90;99.90;;;;;;4930611;29;20546;-75
2022/07/21 09:48:46;;;;;;;0.00;0.00;;;24.80;99.90;;;;;;4929208;28;20515;-74
2022/07/21 09:51:37;;;;;;;0.00;0.00;;;24.60;99.90;;;;;;4937697;29;20466;-80
2022/07/21 09:54:07;;;;;;;0.00;0.00;;;24.40;99.90;;;;;;4951576;29;20485;-82
2022/07/21 09:56:40;;;;;;;0.00;0.00;;;24.40;99.90;;;;;;4944071;29;20512;-85
2022/07/21 09:59:10;;;;;;;0.00;0.00;;;24.40;99.90;;;;;;4934548;29;20555;-70
2022/07/21 10:01:40;;;;;;;0.00;0.00;;;24.50;99.90;;;;;;4927053;29;20441;-77
2022/07/21 10:04:08;;;;;;;0.00;0.00;;;24.70;99.90;;;;;;4930603;29;20500;-77
2022/07/21 10:06:38;;;;;;;0.00;0.00;;;24.90;99.90;;;;;;4939832;29;20451;-76
2022/07/21 10:09:08;;;;;;;0.00;0.00;;;25.00;99.90;;;;;;4928340;29;20450;-76
2022/07/21 10:11:41;;;;;;;0.00;0.00;;;25.20;99.90;;;;;;4927542;29;20447;-75
2022/07/21 10:14:11;;;;;;;0.00;0.00;;;25.30;99.90;;;;;;4927897;29;20464;-75
2022/07/21 10:16:41;;;;;;;0.00;0.00;;;25.40;99.90;;;;;;4927875;28;20591;-76
2022/07/21 10:19:23;;;;;;;0.00;0.00;;;25.50;99.90;;;;;;4945378;29;20510;-77
2022/07/21 10:21:59;;;;;;;0.00;0.00;;;25.80;99.90;;;;;;4946258;29;20448;-76
2022/07/21 10:24:29;;;;;;;0.00;0.00;;;26.00;99.90;;;;;;4947689;29;20588;-76
2022/07/21 10:27:01;;;;;;;0.00;0.00;;;26.10;99.90;;;;;;4944585;29;20999;-76
2022/07/21 10:29:53;;;;;;;0.00;0.00;;;26.10;99.90;;;;;;4944599;28;20546;-77
2022/07/21 10:32:31;;;;;;;0.00;0.00;;;26.00;99.90;;;;;;4944995;28;20444;-76
2022/07/21 10:35:01;;;;;;;0.00;0.00;;;25.80;99.90;;;;;;4946211;28;20474;-78
2022/07/21 10:37:47;;;;;;;0.00;0.00;;;25.80;99.90;;;;;;4943142;28;20989;-70
2022/07/21 10:40:38;;;;;;;0.00;0.00;;;25.80;99.90;;;;;;4928002;28;20952;-71
2022/07/21 10:43:39;;;;;;;0.00;0.00;;;25.80;99.90;;;;;;4922286;29;20772;-70
2022/07/21 10:46:35;;;;;;;0.00;0.00;;;25.80;99.90;;;;;;4921434;29;20440;-70
2022/07/21 10:49:06;;;;;;;0.00;0.00;;;25.70;99.90;;;;;;4922193;29;20743;-71
2022/07/21 10:51:36;;;;;;;0.00;0.00;;;25.70;99.90;;;;;;4929831;28;20749;-70
2022/07/21 10:54:26;;;;;;;0.00;0.00;;;25.70;99.90;;;;;;4943076;29;20475;-71
2022/07/21 10:57:27;;;;;;;0.00;0.00;;;25.70;99.90;;;;;;4931177;29;20521;-71
2022/07/21 11:00:21;;;;;;;0.00;0.00;;;25.90;99.90;;;;;;4927881;29;20459;-69
2022/07/21 11:02:51;;;;;;;0.00;0.00;;;26.10;99.90;;;;;;4923142;29;20534;-70
2022/07/21 11:05:22;;;;;;;0.00;0.00;;;26.20;99.90;;;;;;4923231;29;20445;-72
2022/07/21 11:08:12;;;;;;;0.00;0.00;;;26.40;99.90;;;;;;4922358;29;20493;-71
2022/07/21 11:10:42;;;;;;;0.00;0.00;;;26.70;99.90;;;;;;4922456;29;20773;-69
2022/07/21 11:13:10;;;;;;;0.00;0.00;;;26.80;99.90;;;;;;4923033;29;20476;-70
2022/07/21 11:15:47;;;;;;;0.00;0.00;;;26.80;99.90;;;;;;4922196;29;20969;-70
2022/07/21 11:18:19;;;;;;;0.00;0.00;;;26.90;99.90;;;;;;4922129;29;20497;-72
2022/07/21 11:23:46;;;;;;;0.00;0.00;;;27.00;99.90;;;;;;5053733;28;20532;-72
2022/07/21 11:26:15;;;;;;;0.00;0.00;;;27.10;99.90;;;;;;5054123;27;20594;-74
2022/07/21 11:28:44;;;;;;;0.00;0.00;;;27.10;99.90;;;;;;5044250;28;20853;-75
2022/07/21 11:31:16;;;;;;;0.00;0.00;;;26.90;99.90;;;;;;5032125;28;20742;-76
2022/07/21 11:33:47;;;;;;;0.00;0.00;;;26.90;99.90;;;;;;5034570;27;20445;-74
2022/07/21 11:36:27;;;;;;;0.00;0.00;;;26.90;99.90;;;;;;5034857;27;20467;-75
2022/07/21 11:39:05;;;;;;;0.00;0.00;;;26.80;99.90;;;;;;5014171;28;20475;-73
2022/07/21 11:41:35;;;;;;;0.00;0.00;;;26.70;99.90;;;;;;5012519;28;20592;-75
2022/07/21 11:44:03;;;;;;;0.00;0.00;;;26.50;99.90;;;;;;5012171;28;20536;-74
2022/07/21 11:46:46;;;;;;;0.00;0.00;;;26.40;99.90;;;;;;5011796;28;20803;-74
2022/07/21 11:49:14;;;;;;;0.00;0.00;;;26.10;99.90;;;;;;5012190;27;20467;-74
2022/07/21 11:51:48;;;;;;;0.00;0.00;;;26.00;99.90;;;;;;5012730;28;20721;-76
2022/07/21 11:54:27;;;;;;;0.00;0.00;;;25.90;99.90;;;;;;5013038;28;20445;-76
2022/07/21 11:56:56;;;;;;;0.00;0.00;;;25.90;99.90;;;;;;5013094;28;20460;-75
2022/07/21 11:59:25;;;;;;;0.00;0.00;;;26.00;99.90;;;;;;5020100;28;20437;-74
2022/07/21 12:01:56;;;;;;;0.00;0.00;;;26.30;99.90;;;;;;5025762;27;20489;-74
2022/07/21 12:04:33;;;;;;;0.00;0.00;;;26.50;99.90;;;;;;5022151;28;20435;-74
2022/07/21 12:07:03;;;;;;;0.00;0.00;;;26.70;99.90;;;;;;5022000;28;20463;-74
2022/07/21 12:09:35;;;;;;;0.00;0.00;;;26.90;99.90;;;;;;5026906;28;20445;-74
2022/07/21 12:12:03;;;;;;;0.00;0.00;;;27.10;99.90;;;;;;5022426;28;20465;-74
2022/07/21 12:14:49;;;;;;;0.00;0.00;;;27.30;99.90;;;;;;5023926;28;20520;-71
2022/07/21 12:17:31;;;;;;;0.00;0.00;;;27.40;99.90;;;;;;5025909;28;20556;-76
2022/07/21 12:19:59;;;;;;;0.00;0.00;;;27.50;99.90;;;;;;5025800;28;20541;-75
2022/07/21 12:22:42;;;;;;;0.00;0.00;;;27.40;99.90;;;;;;5023033;27;20761;-74
2022/07/21 12:25:13;;;;;;;0.00;0.00;;;27.50;99.90;;;;;;5021762;28;21073;-74
2022/07/21 12:27:45;;;;;;;0.00;0.00;;;27.60;99.90;;;;;;5022096;28;20513;-73
2022/07/21 12:30:35;;;;;;;0.00;0.00;;;27.70;99.90;;;;;;5021843;27;20448;-73
2022/07/21 12:33:06;;;;;;;0.00;0.00;;;27.70;99.90;;;;;;5018940;28;20447;-74
2022/07/21 12:35:35;;;;;;;0.00;0.00;;;27.50;99.90;;;;;;5009440;28;20489;-74
2022/07/21 12:38:09;;;;;;;0.00;0.00;;;27.40;99.90;;;;;;5010886;28;20532;-75
2022/07/21 12:40:41;;;;;;;0.00;0.00;;;27.20;99.90;;;;;;5009794;28;20437;-74
2022/07/21 12:43:29;;;;;;;0.00;0.00;;;27.00;99.90;;;;;;5009635;28;20472;-73
2022/07/21 12:46:00;;;;;;;0.00;0.00;;;27.00;99.90;;;;;;5008358;28;20946;-74
2022/07/21 12:48:29;;;;;;;0.00;0.00;;;27.00;99.90;;;;;;5008834;28;20477;-74
2022/07/21 12:51:07;;;;;;;0.00;0.00;;;27.10;99.90;;;;;;5007512;28;20798;-74
2022/07/21 12:53:37;;;;;;;0.00;0.00;;;27.10;99.90;;;;;;5009367;28;20433;-74
2022/07/21 12:56:07;;;;;;;0.00;0.00;;;27.00;99.90;;;;;;5007623;28;20727;-74
2022/07/21 12:58:36;;;;;;;0.00;0.00;;;26.80;99.90;;;;;;5006932;28;20457;-76
2022/07/21 13:01:05;;;;;;;0.00;0.00;;;26.80;99.90;;;;;;5007431;27;20578;-74
2022/07/21 13:03:34;;;;;;;0.00;0.00;;;26.80;99.90;;;;;;5007965;28;20861;-74
2022/07/21 13:06:07;;;;;;;0.00;0.00;;;26.70;99.90;;;;;;5009017;28;20555;-75
2022/07/21 13:08:38;;;;;;;0.00;0.00;;;26.70;99.90;;;;;;5010207;28;20950;-74
2022/07/21 13:11:07;;;;;;;0.00;0.00;;;26.80;99.90;;;;;;5006274;28;20548;-74
2022/07/21 13:13:36;;;;;;;0.00;0.00;;;26.90;99.90;;;;;;5008497;28;20460;-75
2022/07/21 13:16:05;;;;;;;0.00;0.00;;;27.00;99.90;;;;;;5008319;28;20725;-74
2022/07/21 13:18:33;;;;;;;0.00;0.00;;;27.00;99.90;;;;;;5007941;28;20627;-74
2022/07/21 13:21:02;;;;;;;0.00;0.00;;;27.00;99.90;;;;;;5006332;28;20551;-74
2022/07/21 13:23:30;;;;;;;0.00;0.00;;;27.00;99.90;;;;;;5008211;27;20493;-74
2022/07/21 13:25:58;;;;;;;0.00;0.00;;;26.90;99.90;;;;;;5012749;28;20520;-74